sensor_id;sensor_type;location;lat;lon;timestamp;P1;durP1;ratioP1;P2;durP2;ratioP2
21162;SDS011;10739;52.198;20.908;2022-10-31T00:01:18;53.50;;;37.45;;
21162;SDS011;10739;52.198;20.908;2022-10-31T00:03:53;61.97;;;39.83;;
21162;SDS011;10739;52.198;20.908;2022-10-31T00:06:20;57.05;;;39.35;;
21162;SDS011;10739;52.198;20.908;2022-10-31T00:08:49;56.85;;;39.97;;
21162;SDS011;10739;52.198;20.908;2022-10-31T00:11:24;59.90;;;38.42;;
21162;SDS011;10739;52.198;20.908;2022-10-31T00:13:51;52.97;;;36.38;;
21162;SDS011;10739;52.198;20.908;2022-10-31T00:16:21;50.13;;;34.90;;
21162;SDS011;10739;52.198;20.908;2022-10-31T00:18:53;51.40;;;35.70;;
21162;SDS011;10739;52.198;20.908;2022-10-31T00:21:23;54.40;;;34.90;;
21162;SDS011;10739;52.198;20.908;2022-10-31T00:23:50;57.30;;;37.67;;
21162;SDS011;10739;52.198;20.908;2022-10-31T00:26:17;59.13;;;37.80;;
21162;SDS011;10739;52.198;20.908;2022-10-31T00:28:44;54.55;;;35.90;;
21162;SDS011;10739;52.198;20.908;2022-10-31T00:31:11;56.05;;;36.13;;
21162;SDS011;10739;52.198;20.908;2022-10-31T00:33:38;54.42;;;36.78;;
21162;SDS011;10739;52.198;20.908;2022-10-31T00:36:06;53.45;;;35.70;;
21162;SDS011;10739;52.198;20.908;2022-10-31T00:38:36;54.92;;;36.17;;
21162;SDS011;10739;52.198;20.908;2022-10-31T00:41:02;54.45;;;37.95;;
21162;SDS011;10739;52.198;20.908;2022-10-31T00:43:28;51.95;;;36.65;;
21162;SDS011;10739;52.198;20.908;2022-10-31T00:45:54;54.67;;;39.20;;
21162;SDS011;10739;52.198;20.908;2022-10-31T00:48:20;56.38;;;38.45;;
21162;SDS011;10739;52.198;20.908;2022-10-31T00:50:47;54.28;;;37.65;;
21162;SDS011;10739;52.198;20.908;2022-10-31T00:53:13;51.30;;;37.10;;
21162;SDS011;10739;52.198;20.908;2022-10-31T00:55:41;68.75;;;42.70;;
21162;SDS011;10739;52.198;20.908;2022-10-31T00:58:07;58.90;;;40.97;;
21162;SDS011;10739;52.198;20.908;2022-10-31T01:00:33;64.63;;;42.47;;
21162;SDS011;10739;52.198;20.908;2022-10-31T01:03:00;62.67;;;43.38;;
21162;SDS011;10739;52.198;20.908;2022-10-31T01:05:26;60.53;;;42.63;;
21162;SDS011;10739;52.198;20.908;2022-10-31T01:07:52;63.72;;;42.67;;
21162;SDS011;10739;52.198;20.908;2022-10-31T01:10:18;67.85;;;41.75;;
21162;SDS011;10739;52.198;20.908;2022-10-31T01:12:45;60.90;;;42.33;;
21162;SDS011;10739;52.198;20.908;2022-10-31T01:15:15;63.08;;;42.70;;
21162;SDS011;10739;52.198;20.908;2022-10-31T01:17:47;59.83;;;41.10;;
21162;SDS011;10739;52.198;20.908;2022-10-31T01:20:14;61.20;;;42.78;;
21162;SDS011;10739;52.198;20.908;2022-10-31T01:22:42;53.42;;;38.17;;
21162;SDS011;10739;52.198;20.908;2022-10-31T01:25:08;65.00;;;40.78;;
21162;SDS011;10739;52.198;20.908;2022-10-31T01:27:35;62.33;;;40.28;;
21162;SDS011;10739;52.198;20.908;2022-10-31T01:30:02;56.05;;;39.72;;
21162;SDS011;10739;52.198;20.908;2022-10-31T01:32:30;56.00;;;38.83;;
21162;SDS011;10739;52.198;20.908;2022-10-31T01:34:56;63.53;;;40.35;;
21162;SDS011;10739;52.198;20.908;2022-10-31T01:37:22;54.70;;;38.80;;
21162;SDS011;10739;52.198;20.908;2022-10-31T01:39:48;54.05;;;38.25;;
21162;SDS011;10739;52.198;20.908;2022-10-31T01:42:18;56.58;;;39.50;;
21162;SDS011;10739;52.198;20.908;2022-10-31T01:47:19;55.42;;;38.25;;
21162;SDS011;10739;52.198;20.908;2022-10-31T01:49:57;57.13;;;37.42;;
21162;SDS011;10739;52.198;20.908;2022-10-31T01:52:33;54.85;;;37.80;;
21162;SDS011;10739;52.198;20.908;2022-10-31T01:55:23;60.53;;;38.55;;
21162;SDS011;10739;52.198;20.908;2022-10-31T01:58:05;62.20;;;39.85;;
21162;SDS011;10739;52.198;20.908;2022-10-31T02:00:38;54.00;;;36.58;;
21162;SDS011;10739;52.198;20.908;2022-10-31T02:03:08;57.08;;;37.33;;
21162;SDS011;10739;52.198;20.908;2022-10-31T02:05:35;52.22;;;36.85;;
21162;SDS011;10739;52.198;20.908;2022-10-31T02:10:57;51.72;;;35.42;;
21162;SDS011;10739;52.198;20.908;2022-10-31T02:13:26;53.13;;;36.58;;
21162;SDS011;10739;52.198;20.908;2022-10-31T02:15:56;49.70;;;34.90;;
21162;SDS011;10739;52.198;20.908;2022-10-31T02:18:24;46.13;;;34.05;;
21162;SDS011;10739;52.198;20.908;2022-10-31T02:26:41;48.95;;;34.25;;
21162;SDS011;10739;52.198;20.908;2022-10-31T02:29:50;48.97;;;34.47;;
21162;SDS011;10739;52.198;20.908;2022-10-31T02:32:38;50.72;;;33.20;;
21162;SDS011;10739;52.198;20.908;2022-10-31T02:38:19;63.72;;;43.80;;
21162;SDS011;10739;52.198;20.908;2022-10-31T02:41:37;56.60;;;39.50;;
21162;SDS011;10739;52.198;20.908;2022-10-31T02:44:35;65.60;;;42.97;;
21162;SDS011;10739;52.198;20.908;2022-10-31T02:47:17;58.60;;;40.65;;
21162;SDS011;10739;52.198;20.908;2022-10-31T02:52:27;60.65;;;39.47;;
21162;SDS011;10739;52.198;20.908;2022-10-31T02:54:56;60.22;;;39.83;;
21162;SDS011;10739;52.198;20.908;2022-10-31T02:57:27;56.13;;;40.22;;
21162;SDS011;10739;52.198;20.908;2022-10-31T03:00:01;58.80;;;39.00;;
21162;SDS011;10739;52.198;20.908;2022-10-31T03:11:11;62.70;;;39.45;;
21162;SDS011;10739;52.198;20.908;2022-10-31T03:13:41;55.22;;;39.42;;
21162;SDS011;10739;52.198;20.908;2022-10-31T03:16:31;54.88;;;37.72;;
21162;SDS011;10739;52.198;20.908;2022-10-31T03:19:23;56.25;;;39.38;;
21162;SDS011;10739;52.198;20.908;2022-10-31T03:22:00;51.85;;;37.40;;
21162;SDS011;10739;52.198;20.908;2022-10-31T03:24:36;53.67;;;37.67;;
21162;SDS011;10739;52.198;20.908;2022-10-31T03:27:05;56.30;;;37.20;;
21162;SDS011;10739;52.198;20.908;2022-10-31T03:29:38;53.75;;;38.80;;
21162;SDS011;10739;52.198;20.908;2022-10-31T03:32:11;54.20;;;37.20;;
21162;SDS011;10739;52.198;20.908;2022-10-31T03:34:44;48.90;;;33.38;;
21162;SDS011;10739;52.198;20.908;2022-10-31T03:37:13;48.95;;;35.10;;
21162;SDS011;10739;52.198;20.908;2022-10-31T03:39:44;53.50;;;34.58;;
21162;SDS011;10739;52.198;20.908;2022-10-31T03:42:15;51.15;;;35.45;;
21162;SDS011;10739;52.198;20.908;2022-10-31T03:45:08;44.30;;;33.17;;
21162;SDS011;10739;52.198;20.908;2022-10-31T03:47:42;51.10;;;33.30;;
21162;SDS011;10739;52.198;20.908;2022-10-31T03:50:10;52.38;;;33.15;;
21162;SDS011;10739;52.198;20.908;2022-10-31T03:55:52;45.22;;;33.75;;
21162;SDS011;10739;52.198;20.908;2022-10-31T03:59:02;44.45;;;31.35;;
21162;SDS011;10739;52.198;20.908;2022-10-31T04:01:43;53.27;;;35.33;;
21162;SDS011;10739;52.198;20.908;2022-10-31T04:04:15;48.83;;;35.00;;
21162;SDS011;10739;52.198;20.908;2022-10-31T04:06:44;58.63;;;40.15;;
21162;SDS011;10739;52.198;20.908;2022-10-31T04:09:13;52.67;;;37.53;;
21162;SDS011;10739;52.198;20.908;2022-10-31T04:11:43;55.40;;;38.33;;
21162;SDS011;10739;52.198;20.908;2022-10-31T04:14:18;56.50;;;39.00;;
21162;SDS011;10739;52.198;20.908;2022-10-31T04:16:46;52.05;;;38.40;;
21162;SDS011;10739;52.198;20.908;2022-10-31T04:19:13;50.20;;;35.50;;
21162;SDS011;10739;52.198;20.908;2022-10-31T04:21:40;53.45;;;35.85;;
21162;SDS011;10739;52.198;20.908;2022-10-31T04:24:08;51.13;;;35.70;;
21162;SDS011;10739;52.198;20.908;2022-10-31T04:26:35;50.38;;;34.83;;
21162;SDS011;10739;52.198;20.908;2022-10-31T04:29:02;48.17;;;36.10;;
21162;SDS011;10739;52.198;20.908;2022-10-31T04:31:28;48.10;;;34.97;;
21162;SDS011;10739;52.198;20.908;2022-10-31T04:33:54;47.40;;;35.08;;
21162;SDS011;10739;52.198;20.908;2022-10-31T04:36:21;53.83;;;35.47;;
21162;SDS011;10739;52.198;20.908;2022-10-31T04:38:47;47.40;;;34.65;;
21162;SDS011;10739;52.198;20.908;2022-10-31T04:41:13;48.08;;;36.15;;
21162;SDS011;10739;52.198;20.908;2022-10-31T04:43:39;48.35;;;35.30;;
21162;SDS011;10739;52.198;20.908;2022-10-31T04:46:05;46.85;;;32.33;;
21162;SDS011;10739;52.198;20.908;2022-10-31T04:48:31;46.70;;;33.65;;
21162;SDS011;10739;52.198;20.908;2022-10-31T04:50:58;53.15;;;34.90;;
21162;SDS011;10739;52.198;20.908;2022-10-31T04:53:26;48.95;;;35.17;;
21162;SDS011;10739;52.198;20.908;2022-10-31T04:55:53;48.17;;;35.13;;
21162;SDS011;10739;52.198;20.908;2022-10-31T04:58:19;50.47;;;34.80;;
21162;SDS011;10739;52.198;20.908;2022-10-31T05:00:45;48.10;;;35.88;;
21162;SDS011;10739;52.198;20.908;2022-10-31T05:03:11;51.00;;;34.47;;
21162;SDS011;10739;52.198;20.908;2022-10-31T05:05:37;52.88;;;35.17;;
21162;SDS011;10739;52.198;20.908;2022-10-31T05:08:03;45.92;;;33.53;;
21162;SDS011;10739;52.198;20.908;2022-10-31T05:10:30;48.40;;;33.17;;
21162;SDS011;10739;52.198;20.908;2022-10-31T05:12:57;44.38;;;32.38;;
21162;SDS011;10739;52.198;20.908;2022-10-31T05:15:26;48.97;;;33.42;;
21162;SDS011;10739;52.198;20.908;2022-10-31T05:17:53;46.30;;;32.67;;
21162;SDS011;10739;52.198;20.908;2022-10-31T05:20:21;48.10;;;31.02;;
21162;SDS011;10739;52.198;20.908;2022-10-31T05:22:54;45.55;;;30.73;;
21162;SDS011;10739;52.198;20.908;2022-10-31T05:25:22;47.50;;;31.35;;
21162;SDS011;10739;52.198;20.908;2022-10-31T05:27:51;44.50;;;30.30;;
21162;SDS011;10739;52.198;20.908;2022-10-31T05:30:20;44.95;;;31.08;;
21162;SDS011;10739;52.198;20.908;2022-10-31T05:32:49;39.40;;;28.65;;
21162;SDS011;10739;52.198;20.908;2022-10-31T05:35:23;40.67;;;30.15;;
21162;SDS011;10739;52.198;20.908;2022-10-31T05:37:53;43.45;;;31.30;;
21162;SDS011;10739;52.198;20.908;2022-10-31T05:40:20;43.38;;;30.73;;
21162;SDS011;10739;52.198;20.908;2022-10-31T05:42:47;44.70;;;30.63;;
21162;SDS011;10739;52.198;20.908;2022-10-31T05:45:17;42.20;;;30.23;;
21162;SDS011;10739;52.198;20.908;2022-10-31T05:47:55;45.08;;;30.52;;
21162;SDS011;10739;52.198;20.908;2022-10-31T05:50:22;46.60;;;30.90;;
21162;SDS011;10739;52.198;20.908;2022-10-31T05:52:58;43.95;;;31.48;;
21162;SDS011;10739;52.198;20.908;2022-10-31T05:55:26;39.83;;;28.90;;
21162;SDS011;10739;52.198;20.908;2022-10-31T05:57:54;39.55;;;28.77;;
21162;SDS011;10739;52.198;20.908;2022-10-31T06:00:21;43.00;;;29.65;;
21162;SDS011;10739;52.198;20.908;2022-10-31T06:02:49;40.97;;;30.67;;
21162;SDS011;10739;52.198;20.908;2022-10-31T06:05:23;41.05;;;29.55;;
21162;SDS011;10739;52.198;20.908;2022-10-31T06:07:49;55.63;;;38.60;;
21162;SDS011;10739;52.198;20.908;2022-10-31T06:10:15;41.58;;;30.08;;
21162;SDS011;10739;52.198;20.908;2022-10-31T06:12:42;45.72;;;29.10;;
21162;SDS011;10739;52.198;20.908;2022-10-31T06:15:08;38.83;;;28.95;;
21162;SDS011;10739;52.198;20.908;2022-10-31T06:17:35;37.83;;;29.17;;
21162;SDS011;10739;52.198;20.908;2022-10-31T06:20:02;42.35;;;28.52;;
21162;SDS011;10739;52.198;20.908;2022-10-31T06:22:29;49.03;;;29.55;;
21162;SDS011;10739;52.198;20.908;2022-10-31T06:24:56;43.30;;;29.38;;
21162;SDS011;10739;52.198;20.908;2022-10-31T06:27:22;41.95;;;27.80;;
21162;SDS011;10739;52.198;20.908;2022-10-31T06:29:49;48.33;;;29.95;;
21162;SDS011;10739;52.198;20.908;2022-10-31T06:32:15;45.42;;;29.65;;
21162;SDS011;10739;52.198;20.908;2022-10-31T06:34:41;38.20;;;27.48;;
21162;SDS011;10739;52.198;20.908;2022-10-31T06:37:10;48.60;;;25.63;;
21162;SDS011;10739;52.198;20.908;2022-10-31T06:39:37;35.97;;;24.25;;
21162;SDS011;10739;52.198;20.908;2022-10-31T06:42:03;35.53;;;24.38;;
21162;SDS011;10739;52.198;20.908;2022-10-31T06:44:30;41.42;;;24.90;;
21162;SDS011;10739;52.198;20.908;2022-10-31T06:46:57;43.47;;;24.73;;
21162;SDS011;10739;52.198;20.908;2022-10-31T06:49:23;38.22;;;23.17;;
21162;SDS011;10739;52.198;20.908;2022-10-31T06:51:50;38.25;;;23.13;;
21162;SDS011;10739;52.198;20.908;2022-10-31T06:54:16;44.90;;;22.55;;
21162;SDS011;10739;52.198;20.908;2022-10-31T06:56:45;46.28;;;22.45;;
21162;SDS011;10739;52.198;20.908;2022-10-31T06:59:12;37.28;;;23.25;;
21162;SDS011;10739;52.198;20.908;2022-10-31T07:01:39;44.22;;;24.55;;
21162;SDS011;10739;52.198;20.908;2022-10-31T07:04:06;42.85;;;25.00;;
21162;SDS011;10739;52.198;20.908;2022-10-31T07:06:35;46.65;;;25.92;;
21162;SDS011;10739;52.198;20.908;2022-10-31T07:09:02;39.20;;;24.95;;
21162;SDS011;10739;52.198;20.908;2022-10-31T07:11:28;39.78;;;23.77;;
21162;SDS011;10739;52.198;20.908;2022-10-31T07:13:55;40.80;;;24.23;;
21162;SDS011;10739;52.198;20.908;2022-10-31T07:16:21;41.15;;;25.05;;
21162;SDS011;10739;52.198;20.908;2022-10-31T07:18:47;38.67;;;24.33;;
21162;SDS011;10739;52.198;20.908;2022-10-31T07:21:14;36.42;;;22.95;;
21162;SDS011;10739;52.198;20.908;2022-10-31T07:23:40;38.83;;;23.38;;
21162;SDS011;10739;52.198;20.908;2022-10-31T07:26:07;35.53;;;21.27;;
21162;SDS011;10739;52.198;20.908;2022-10-31T07:28:35;37.10;;;23.02;;
21162;SDS011;10739;52.198;20.908;2022-10-31T07:31:01;37.53;;;21.70;;
21162;SDS011;10739;52.198;20.908;2022-10-31T07:33:28;38.35;;;21.75;;
21162;SDS011;10739;52.198;20.908;2022-10-31T07:35:54;41.00;;;20.85;;
21162;SDS011;10739;52.198;20.908;2022-10-31T07:38:20;37.40;;;21.75;;
21162;SDS011;10739;52.198;20.908;2022-10-31T07:40:50;36.35;;;20.33;;
21162;SDS011;10739;52.198;20.908;2022-10-31T07:43:18;36.72;;;20.90;;
21162;SDS011;10739;52.198;20.908;2022-10-31T07:45:48;32.15;;;19.38;;
21162;SDS011;10739;52.198;20.908;2022-10-31T07:48:19;35.53;;;18.42;;
21162;SDS011;10739;52.198;20.908;2022-10-31T07:50:46;32.30;;;18.67;;
21162;SDS011;10739;52.198;20.908;2022-10-31T07:53:12;31.13;;;18.77;;
21162;SDS011;10739;52.198;20.908;2022-10-31T07:55:40;27.60;;;19.17;;
21162;SDS011;10739;52.198;20.908;2022-10-31T07:58:07;27.90;;;16.45;;
21162;SDS011;10739;52.198;20.908;2022-10-31T08:00:40;25.27;;;15.88;;
21162;SDS011;10739;52.198;20.908;2022-10-31T08:03:13;21.48;;;15.00;;
21162;SDS011;10739;52.198;20.908;2022-10-31T08:08:10;24.15;;;14.55;;
21162;SDS011;10739;52.198;20.908;2022-10-31T08:10:36;23.30;;;14.07;;
21162;SDS011;10739;52.198;20.908;2022-10-31T08:13:03;19.50;;;13.90;;
21162;SDS011;10739;52.198;20.908;2022-10-31T08:15:37;26.85;;;15.07;;
21162;SDS011;10739;52.198;20.908;2022-10-31T08:18:06;19.17;;;13.77;;
21162;SDS011;10739;52.198;20.908;2022-10-31T08:20:40;20.10;;;13.70;;
21162;SDS011;10739;52.198;20.908;2022-10-31T08:23:08;17.88;;;13.25;;
21162;SDS011;10739;52.198;20.908;2022-10-31T08:25:36;15.40;;;11.95;;
21162;SDS011;10739;52.198;20.908;2022-10-31T08:28:03;17.60;;;13.18;;
21162;SDS011;10739;52.198;20.908;2022-10-31T08:30:32;16.55;;;12.52;;
21162;SDS011;10739;52.198;20.908;2022-10-31T08:35:32;19.48;;;13.13;;
21162;SDS011;10739;52.198;20.908;2022-10-31T08:37:59;15.05;;;12.85;;
21162;SDS011;10739;52.198;20.908;2022-10-31T08:40:26;16.45;;;12.73;;
21162;SDS011;10739;52.198;20.908;2022-10-31T08:42:58;15.35;;;12.05;;
21162;SDS011;10739;52.198;20.908;2022-10-31T08:45:35;16.05;;;12.43;;
21162;SDS011;10739;52.198;20.908;2022-10-31T08:48:06;15.63;;;11.50;;
21162;SDS011;10739;52.198;20.908;2022-10-31T08:50:39;19.23;;;12.90;;
21162;SDS011;10739;52.198;20.908;2022-10-31T08:53:08;20.40;;;13.35;;
21162;SDS011;10739;52.198;20.908;2022-10-31T08:55:42;18.38;;;12.68;;
21162;SDS011;10739;52.198;20.908;2022-10-31T08:58:10;15.98;;;13.02;;
21162;SDS011;10739;52.198;20.908;2022-10-31T09:00:39;16.40;;;12.60;;
21162;SDS011;10739;52.198;20.908;2022-10-31T09:03:06;17.40;;;13.52;;
21162;SDS011;10739;52.198;20.908;2022-10-31T09:05:39;20.65;;;16.27;;
21162;SDS011;10739;52.198;20.908;2022-10-31T09:08:06;19.23;;;14.43;;
21162;SDS011;10739;52.198;20.908;2022-10-31T09:10:34;24.25;;;14.88;;
21162;SDS011;10739;52.198;20.908;2022-10-31T09:13:03;19.15;;;13.70;;
21162;SDS011;10739;52.198;20.908;2022-10-31T09:15:34;18.77;;;15.35;;
21162;SDS011;10739;52.198;20.908;2022-10-31T09:18:06;19.48;;;13.88;;
21162;SDS011;10739;52.198;20.908;2022-10-31T09:20:34;17.63;;;13.45;;
21162;SDS011;10739;52.198;20.908;2022-10-31T09:23:06;21.30;;;14.85;;
21162;SDS011;10739;52.198;20.908;2022-10-31T09:25:38;18.42;;;13.75;;
21162;SDS011;10739;52.198;20.908;2022-10-31T09:28:05;22.90;;;14.10;;
21162;SDS011;10739;52.198;20.908;2022-10-31T09:30:35;19.13;;;14.95;;
21162;SDS011;10739;52.198;20.908;2022-10-31T09:33:06;21.80;;;15.02;;
21162;SDS011;10739;52.198;20.908;2022-10-31T09:35:36;20.05;;;14.80;;
21162;SDS011;10739;52.198;20.908;2022-10-31T09:38:04;21.70;;;16.67;;
21162;SDS011;10739;52.198;20.908;2022-10-31T09:40:38;23.08;;;16.63;;
21162;SDS011;10739;52.198;20.908;2022-10-31T09:43:15;23.30;;;17.27;;
21162;SDS011;10739;52.198;20.908;2022-10-31T09:52:31;24.10;;;19.75;;
21162;SDS011;10739;52.198;20.908;2022-10-31T09:57:29;29.35;;;20.75;;
21162;SDS011;10739;52.198;20.908;2022-10-31T10:02:37;32.40;;;21.10;;
21162;SDS011;10739;52.198;20.908;2022-10-31T10:08:22;28.88;;;22.02;;
21162;SDS011;10739;52.198;20.908;2022-10-31T10:10:55;31.05;;;21.83;;
21162;SDS011;10739;52.198;20.908;2022-10-31T10:30:41;32.45;;;22.73;;
21162;SDS011;10739;52.198;20.908;2022-10-31T10:34:04;32.60;;;21.92;;
21162;SDS011;10739;52.198;20.908;2022-10-31T10:36:14;36.05;;;23.88;;
21162;SDS011;10739;52.198;20.908;2022-10-31T10:38:53;34.85;;;24.10;;
21162;SDS011;10739;52.198;20.908;2022-10-31T10:41:32;33.15;;;24.02;;
21162;SDS011;10739;52.198;20.908;2022-10-31T10:43:59;34.40;;;23.90;;
21162;SDS011;10739;52.198;20.908;2022-10-31T10:57:56;35.38;;;22.92;;
21162;SDS011;10739;52.198;20.908;2022-10-31T11:00:35;33.50;;;23.65;;
21162;SDS011;10739;52.198;20.908;2022-10-31T11:03:08;31.00;;;23.30;;
21162;SDS011;10739;52.198;20.908;2022-10-31T11:08:30;35.30;;;24.38;;
21162;SDS011;10739;52.198;20.908;2022-10-31T11:11:07;37.20;;;26.25;;
21162;SDS011;10739;52.198;20.908;2022-10-31T11:13:44;38.72;;;24.92;;
21162;SDS011;10739;52.198;20.908;2022-10-31T11:16:15;36.55;;;26.02;;
21162;SDS011;10739;52.198;20.908;2022-10-31T11:21:40;37.67;;;25.92;;
21162;SDS011;10739;52.198;20.908;2022-10-31T11:26:39;38.15;;;25.10;;
21162;SDS011;10739;52.198;20.908;2022-10-31T11:31:41;34.92;;;25.30;;
21162;SDS011;10739;52.198;20.908;2022-10-31T11:34:16;36.47;;;24.58;;
21162;SDS011;10739;52.198;20.908;2022-10-31T11:37:03;31.83;;;23.33;;
21162;SDS011;10739;52.198;20.908;2022-10-31T11:39:41;35.90;;;25.48;;
21162;SDS011;10739;52.198;20.908;2022-10-31T11:42:18;33.90;;;23.33;;
21162;SDS011;10739;52.198;20.908;2022-10-31T11:44:53;33.83;;;22.75;;
21162;SDS011;10739;52.198;20.908;2022-10-31T11:47:24;33.63;;;23.50;;
21162;SDS011;10739;52.198;20.908;2022-10-31T11:49:57;37.70;;;24.73;;
21162;SDS011;10739;52.198;20.908;2022-10-31T11:52:36;32.70;;;22.70;;
21162;SDS011;10739;52.198;20.908;2022-10-31T12:08:38;36.95;;;24.75;;
21162;SDS011;10739;52.198;20.908;2022-10-31T12:14:19;36.78;;;25.55;;
21162;SDS011;10739;52.198;20.908;2022-10-31T12:17:14;41.53;;;27.25;;
21162;SDS011;10739;52.198;20.908;2022-10-31T12:22:42;42.30;;;27.15;;
21162;SDS011;10739;52.198;20.908;2022-10-31T12:25:58;39.38;;;27.98;;
21162;SDS011;10739;52.198;20.908;2022-10-31T12:31:36;54.53;;;32.33;;
21162;SDS011;10739;52.198;20.908;2022-10-31T12:34:25;52.58;;;32.88;;
21162;SDS011;10739;52.198;20.908;2022-10-31T12:40:27;51.55;;;32.13;;
21162;SDS011;10739;52.198;20.908;2022-10-31T12:43:36;46.65;;;31.70;;
21162;SDS011;10739;52.198;20.908;2022-10-31T12:57:47;54.45;;;35.38;;
21162;SDS011;10739;52.198;20.908;2022-10-31T13:00:20;49.58;;;33.15;;
21162;SDS011;10739;52.198;20.908;2022-10-31T13:03:14;53.83;;;32.58;;
21162;SDS011;10739;52.198;20.908;2022-10-31T13:06:03;58.95;;;33.92;;
21162;SDS011;10739;52.198;20.908;2022-10-31T13:08:51;58.60;;;34.10;;
21162;SDS011;10739;52.198;20.908;2022-10-31T13:11:37;56.00;;;34.83;;
21162;SDS011;10739;52.198;20.908;2022-10-31T13:14:37;56.55;;;34.88;;
21162;SDS011;10739;52.198;20.908;2022-10-31T13:17:14;58.90;;;35.28;;
21162;SDS011;10739;52.198;20.908;2022-10-31T13:20:13;58.13;;;35.45;;
21162;SDS011;10739;52.198;20.908;2022-10-31T13:22:56;63.80;;;37.90;;
21162;SDS011;10739;52.198;20.908;2022-10-31T13:25:49;61.45;;;38.33;;
21162;SDS011;10739;52.198;20.908;2022-10-31T13:28:29;66.15;;;38.80;;
21162;SDS011;10739;52.198;20.908;2022-10-31T13:31:07;63.20;;;37.75;;
21162;SDS011;10739;52.198;20.908;2022-10-31T13:33:37;71.82;;;40.85;;
21162;SDS011;10739;52.198;20.908;2022-10-31T13:44:21;71.60;;;41.95;;
21162;SDS011;10739;52.198;20.908;2022-10-31T13:46:51;73.55;;;44.53;;
21162;SDS011;10739;52.198;20.908;2022-10-31T13:52:05;79.40;;;45.80;;
21162;SDS011;10739;52.198;20.908;2022-10-31T13:54:35;77.90;;;45.67;;
21162;SDS011;10739;52.198;20.908;2022-10-31T13:57:06;75.78;;;42.38;;
21162;SDS011;10739;52.198;20.908;2022-10-31T14:02:52;68.70;;;40.55;;
21162;SDS011;10739;52.198;20.908;2022-10-31T14:07:54;56.08;;;36.00;;
21162;SDS011;10739;52.198;20.908;2022-10-31T14:10:27;61.47;;;35.38;;
21162;SDS011;10739;52.198;20.908;2022-10-31T14:13:14;62.00;;;36.53;;
21162;SDS011;10739;52.198;20.908;2022-10-31T14:15:57;56.97;;;34.90;;
21162;SDS011;10739;52.198;20.908;2022-10-31T14:18:31;62.83;;;36.25;;
21162;SDS011;10739;52.198;20.908;2022-10-31T14:23:48;59.42;;;35.67;;
21162;SDS011;10739;52.198;20.908;2022-10-31T14:28:54;63.35;;;37.60;;
21162;SDS011;10739;52.198;20.908;2022-10-31T14:50:58;87.90;;;43.40;;
21162;SDS011;10739;52.198;20.908;2022-10-31T14:53:30;91.63;;;45.25;;
21162;SDS011;10739;52.198;20.908;2022-10-31T14:56:20;87.18;;;44.65;;
21162;SDS011;10739;52.198;20.908;2022-10-31T14:59:02;95.30;;;45.25;;
21162;SDS011;10739;52.198;20.908;2022-10-31T15:01:35;95.20;;;45.85;;
21162;SDS011;10739;52.198;20.908;2022-10-31T15:06:48;95.30;;;45.65;;
21162;SDS011;10739;52.198;20.908;2022-10-31T15:09:43;106.60;;;50.92;;
21162;SDS011;10739;52.198;20.908;2022-10-31T15:12:25;105.32;;;49.05;;
21162;SDS011;10739;52.198;20.908;2022-10-31T15:14:57;91.75;;;45.60;;
21162;SDS011;10739;52.198;20.908;2022-10-31T15:17:41;92.00;;;44.40;;
21162;SDS011;10739;52.198;20.908;2022-10-31T15:20:18;89.15;;;43.08;;
21162;SDS011;10739;52.198;20.908;2022-10-31T15:22:48;97.93;;;42.67;;
21162;SDS011;10739;52.198;20.908;2022-10-31T15:25:22;91.00;;;42.72;;
21162;SDS011;10739;52.198;20.908;2022-10-31T15:27:54;98.30;;;42.53;;
21162;SDS011;10739;52.198;20.908;2022-10-31T15:30:27;93.47;;;42.35;;
21162;SDS011;10739;52.198;20.908;2022-10-31T15:32:54;99.85;;;41.95;;
21162;SDS011;10739;52.198;20.908;2022-10-31T15:35:24;93.18;;;40.67;;
21162;SDS011;10739;52.198;20.908;2022-10-31T15:37:54;91.25;;;41.30;;
21162;SDS011;10739;52.198;20.908;2022-10-31T15:40:23;98.53;;;42.13;;
21162;SDS011;10739;52.198;20.908;2022-10-31T15:42:59;104.35;;;42.63;;
21162;SDS011;10739;52.198;20.908;2022-10-31T15:45:29;93.32;;;44.13;;
21162;SDS011;10739;52.198;20.908;2022-10-31T15:47:57;90.32;;;40.15;;
21162;SDS011;10739;52.198;20.908;2022-10-31T15:53:03;99.22;;;42.67;;
21162;SDS011;10739;52.198;20.908;2022-10-31T15:55:33;90.18;;;40.45;;
21162;SDS011;10739;52.198;20.908;2022-10-31T15:58:13;99.82;;;43.30;;
21162;SDS011;10739;52.198;20.908;2022-10-31T16:00:41;90.03;;;42.08;;
21162;SDS011;10739;52.198;20.908;2022-10-31T16:05:44;89.50;;;39.93;;
21162;SDS011;10739;52.198;20.908;2022-10-31T16:08:34;89.68;;;42.53;;
21162;SDS011;10739;52.198;20.908;2022-10-31T16:11:17;97.53;;;43.08;;
21162;SDS011;10739;52.198;20.908;2022-10-31T16:13:54;94.18;;;42.72;;
21162;SDS011;10739;52.198;20.908;2022-10-31T16:16:42;92.18;;;42.15;;
21162;SDS011;10739;52.198;20.908;2022-10-31T16:19:16;91.78;;;41.30;;
21162;SDS011;10739;52.198;20.908;2022-10-31T16:21:56;90.05;;;42.75;;
21162;SDS011;10739;52.198;20.908;2022-10-31T16:24:54;93.78;;;43.35;;
21162;SDS011;10739;52.198;20.908;2022-10-31T16:27:35;98.30;;;42.92;;
21162;SDS011;10739;52.198;20.908;2022-10-31T16:33:21;99.30;;;45.00;;
21162;SDS011;10739;52.198;20.908;2022-10-31T16:38:56;117.03;;;47.97;;
21162;SDS011;10739;52.198;20.908;2022-10-31T16:41:23;105.63;;;44.72;;
21162;SDS011;10739;52.198;20.908;2022-10-31T16:43:50;111.50;;;47.03;;
21162;SDS011;10739;52.198;20.908;2022-10-31T16:46:20;103.97;;;47.00;;
21162;SDS011;10739;52.198;20.908;2022-10-31T16:48:50;105.70;;;46.75;;
21162;SDS011;10739;52.198;20.908;2022-10-31T16:51:17;112.13;;;46.20;;
21162;SDS011;10739;52.198;20.908;2022-10-31T16:53:43;113.10;;;47.60;;
21162;SDS011;10739;52.198;20.908;2022-10-31T16:56:16;126.80;;;48.42;;
21162;SDS011;10739;52.198;20.908;2022-10-31T16:58:51;130.05;;;47.92;;
21162;SDS011;10739;52.198;20.908;2022-10-31T17:01:17;141.90;;;50.45;;
21162;SDS011;10739;52.198;20.908;2022-10-31T17:03:44;167.35;;;52.33;;
21162;SDS011;10739;52.198;20.908;2022-10-31T17:06:13;172.27;;;52.60;;
21162;SDS011;10739;52.198;20.908;2022-10-31T17:08:40;169.90;;;51.28;;
21162;SDS011;10739;52.198;20.908;2022-10-31T17:11:07;187.43;;;53.00;;
21162;SDS011;10739;52.198;20.908;2022-10-31T17:13:40;202.35;;;53.47;;
21162;SDS011;10739;52.198;20.908;2022-10-31T17:16:07;191.65;;;54.65;;
21162;SDS011;10739;52.198;20.908;2022-10-31T17:18:33;184.02;;;54.00;;
21162;SDS011;10739;52.198;20.908;2022-10-31T17:21:00;203.20;;;52.00;;
21162;SDS011;10739;52.198;20.908;2022-10-31T17:23:30;217.95;;;53.53;;
21162;SDS011;10739;52.198;20.908;2022-10-31T17:25:57;222.65;;;54.47;;
21162;SDS011;10739;52.198;20.908;2022-10-31T17:28:24;222.68;;;54.55;;
21162;SDS011;10739;52.198;20.908;2022-10-31T17:30:52;185.02;;;52.42;;
21162;SDS011;10739;52.198;20.908;2022-10-31T17:33:22;213.93;;;51.67;;
21162;SDS011;10739;52.198;20.908;2022-10-31T17:35:48;210.52;;;55.20;;
21162;SDS011;10739;52.198;20.908;2022-10-31T17:38:15;210.57;;;54.33;;